Meiyo Maru — JD2339 — position and weather

sailwx.info

Track history (hours):
 
Tides and Currents Weather Stations Pressure Air Temp Water Temp Dewpoint Dewpoint Depression Visibility Wind Speed Wind Dir Waves Ship Positions

Meiyo Maru

Last reported at 2017-Oct-20 22:47 UTC. Time now 2017-Oct-22 19:06 UTC.
Position N 34°41' E 134°46'.

Length 40 m; draft 4 m.

Type: Tug. MMSI: 432579000.

Date/timePositionNaut miles runAvg speedWind from/ knotsBaromVisibWave heightAir tempDewpointWater temp
2017-Oct-20 22:47N 34°41' E 134°46'2 6.8
2017-Oct-20 22:28N 34°40' E 134°48'4 7.7
2017-Oct-20 22:00N 34°38' E 134°51'5 8.1
2017-Oct-20 21:27N 34°38' E 134°57'4 7.4
2017-Oct-20 20:58N 34°37' E 135°01'3 5.6
2017-Oct-20 20:31N 34°36' E 135°04'3 5.3
2017-Oct-20 20:00N 34°36' E 135°07'3 5.1
2017-Oct-20 19:30N 34°36' E 135°10'2 3.9
2017-Oct-20 19:00N 34°36' E 135°13'2 4.6
2017-Oct-20 18:30N 34°36' E 135°15'2 4.7
2017-Oct-20 18:01N 34°39' E 135°16'3 5.3
2017-Oct-20 17:30N 34°41' E 135°14'0 0.6
2017-Oct-20 17:00N 34°41' E 135°14'2 4.5
2017-Oct-20 16:30N 34°41' E 135°17'510.5
2017-Oct-20 16:00N 34°40' E 135°23'2 4.4
2017-Oct-20 15:27N 34°39' E 135°26'0 0.0
2017-Oct-20 15:00N 34°39' E 135°26'0 0.0
2017-Oct-20 14:28N 34°39' E 135°26'0 0.0
2017-Oct-20 13:28N 34°39' E 135°26'0 0.0
2017-Oct-20 12:55N 34°39' E 135°26'0 0.0
2017-Oct-20 11:25N 34°39' E 135°26'0 0.0
2017-Oct-20 08:56N 34°39' E 135°26'0 0.0
2017-Oct-20 06:59N 34°39' E 135°26'0 0.0
2017-Oct-20 06:30N 34°39' E 135°26'0 0.0
2017-Oct-20 05:55N 34°39' E 135°26'0 0.0
2017-Oct-20 05:26N 34°39' E 135°26'0 0.0
2017-Oct-20 05:00N 34°39' E 135°26'0 0.0
2017-Oct-20 04:29N 34°39' E 135°26'0 0.0
2017-Oct-20 03:58N 34°39' E 135°26'0 0.0
2017-Oct-20 03:30N 34°39' E 135°26'0 0.0
2017-Oct-20 03:00N 34°39' E 135°26'0 0.0
2017-Oct-20 02:29N 34°39' E 135°26'0 0.0
2017-Oct-20 01:58N 34°39' E 135°26'0 0.0
2017-Oct-20 01:26N 34°39' E 135°26'0 0.0
2017-Oct-20 00:05N 34°39' E 135°26'0 0.0
2017-Oct-19 23:58N 34°39' E 135°26'0 0.0
2017-Oct-19 23:28N 34°39' E 135°26'0 0.0
2017-Oct-19 23:00N 34°39' E 135°26'0 0.7
2017-Oct-19 22:30N 34°39' E 135°26'1 2.5
2017-Oct-19 22:00N 34°39' E 135°24'0 0.6
2017-Oct-19 21:30N 34°39' E 135°25'2 3.0
2017-Oct-19 21:00N 34°40' E 135°26'0 0.0
2017-Oct-19 20:30N 34°40' E 135°26'0 0.0
2017-Oct-19 20:00N 34°40' E 135°26'0 0.0
2017-Oct-19 19:30N 34°40' E 135°26'0 0.0
2017-Oct-19 19:01N 34°40' E 135°26'0 0.0
2017-Oct-19 18:30N 34°40' E 135°26'0 0.0
2017-Oct-19 18:00N 34°40' E 135°26'0 0.0
2017-Oct-19 17:31N 34°40' E 135°26'0 0.0
2017-Oct-19 17:00N 34°40' E 135°26'0 0.0
2017-Oct-19 16:30N 34°40' E 135°26'0 0.0
2017-Oct-19 16:01N 34°40' E 135°26'0 0.0
2017-Oct-19 15:30N 34°40' E 135°26'0 0.0
2017-Oct-19 15:00N 34°40' E 135°26'0 0.0
2017-Oct-19 14:30N 34°40' E 135°26'0 0.0
2017-Oct-19 14:00N 34°40' E 135°26'0 0.0
2017-Oct-19 13:29N 34°40' E 135°26'0 0.0
2017-Oct-19 13:00N 34°40' E 135°26'0 0.0
2017-Oct-19 12:30N 34°40' E 135°26'0 0.0
2017-Oct-19 11:59N 34°40' E 135°26'0 0.0
2017-Oct-19 11:30N 34°40' E 135°26'0 0.0
2017-Oct-19 11:00N 34°40' E 135°26'0 0.0
2017-Oct-19 10:30N 34°40' E 135°26'0 0.0
2017-Oct-19 09:59N 34°40' E 135°26'0 0.0
2017-Oct-19 09:30N 34°40' E 135°26'0 0.0
2017-Oct-19 09:01N 34°40' E 135°26'0 0.0
2017-Oct-19 08:29N 34°40' E 135°26'0 0.0
2017-Oct-19 07:58N 34°40' E 135°26'0 0.0
2017-Oct-19 07:30N 34°40' E 135°26'0 0.0
2017-Oct-19 06:59N 34°40' E 135°26'0 0.0
2017-Oct-19 06:27N 34°40' E 135°26'0 0.0
2017-Oct-19 06:01N 34°40' E 135°26'0 0.0
2017-Oct-19 05:28N 34°40' E 135°26'0 0.0
2017-Oct-19 05:00N 34°40' E 135°26'0 0.0
2017-Oct-19 04:29N 34°40' E 135°26'0 0.0
2017-Oct-19 04:00N 34°40' E 135°26'0 0.0
2017-Oct-19 03:30N 34°40' E 135°26'0 0.0
2017-Oct-19 03:00N 34°40' E 135°26'0 0.0
2017-Oct-19 02:29N 34°40' E 135°26'0 0.0
2017-Oct-19 01:59N 34°40' E 135°26'0 0.0
2017-Oct-19 01:30N 34°40' E 135°26'0 0.0
2017-Oct-19 01:01N 34°40' E 135°26'0 0.0
2017-Oct-19 00:30N 34°40' E 135°26'0 0.0
2017-Oct-19 00:01N 34°40' E 135°26'0 0.0
2017-Oct-18 23:31N 34°40' E 135°26'0 0.0
2017-Oct-18 23:00N 34°40' E 135°26'0 0.0
2017-Oct-18 22:28N 34°40' E 135°26'0 0.0
2017-Oct-18 22:00N 34°40' E 135°26'0 0.0
2017-Oct-18 21:30N 34°40' E 135°26'0 0.0
2017-Oct-18 20:59N 34°40' E 135°26'0 0.0
2017-Oct-18 20:30N 34°40' E 135°26'0 0.0
2017-Oct-18 20:00N 34°40' E 135°26'0 0.0
2017-Oct-18 19:30N 34°40' E 135°26'0 0.0
2017-Oct-18 19:00N 34°40' E 135°26'0 0.0
2017-Oct-18 18:30N 34°40' E 135°26'0 0.0
2017-Oct-18 18:00N 34°40' E 135°26'0 0.0
2017-Oct-18 17:30N 34°40' E 135°26'0 0.0
2017-Oct-18 17:00N 34°40' E 135°26'0 0.0
2017-Oct-18 16:19N 34°40' E 135°26'0 0.0
2017-Oct-18 16:00N 34°40' E 135°26'0 0.0
2017-Oct-18 15:31N 34°40' E 135°26'0 0.0
2017-Oct-18 15:00N 34°40' E 135°26'0 0.0
2017-Oct-18 14:01N 34°40' E 135°26'0 0.0
2017-Oct-18 13:30N 34°40' E 135°26'0 0.0
2017-Oct-18 13:01N 34°40' E 135°26'0 0.0
2017-Oct-18 12:30N 34°40' E 135°26'0 0.0
2017-Oct-18 11:59N 34°40' E 135°26'0 0.0
2017-Oct-18 11:30N 34°40' E 135°26'0 0.0
2017-Oct-18 11:00N 34°40' E 135°26'0 0.0
2017-Oct-18 10:29N 34°40' E 135°26'0 0.0
2017-Oct-18 10:00N 34°40' E 135°26'0 0.0
2017-Oct-18 09:30N 34°40' E 135°26'0 0.0
2017-Oct-18 08:58N 34°40' E 135°26'0 0.0
2017-Oct-18 08:31N 34°40' E 135°26'0 0.0
2017-Oct-18 07:59N 34°40' E 135°26'0 0.0
2017-Oct-18 07:25N 34°40' E 135°26'0 0.0
2017-Oct-18 07:01N 34°40' E 135°26'0 0.0
2017-Oct-18 06:29N 34°40' E 135°26'0 0.0
2017-Oct-18 05:59N 34°40' E 135°26'0 0.0
2017-Oct-18 05:30N 34°40' E 135°26'0 0.0
2017-Oct-18 05:00N 34°40' E 135°26'0 0.0
2017-Oct-18 04:30N 34°40' E 135°26'0 0.0
2017-Oct-18 03:56N 34°40' E 135°26'0 0.0
2017-Oct-18 03:30N 34°40' E 135°26'0 0.0
2017-Oct-18 02:55N 34°40' E 135°26'0 0.0
2017-Oct-18 02:30N 34°40' E 135°26'0 0.0
2017-Oct-18 01:59N 34°40' E 135°26'0 0.0
2017-Oct-18 01:30N 34°40' E 135°26'2 3.7
2017-Oct-18 00:55N 34°39' E 135°29'0 0.7
2017-Oct-18 00:30N 34°39' E 135°29'0 0.0
2017-Oct-18 00:00N 34°39' E 135°29'0 0.0
2017-Oct-17 23:30N 34°39' E 135°29'0 0.0
2017-Oct-17 23:00N 34°39' E 135°29'0 0.0
2017-Oct-17 22:29N 34°39' E 135°29'0 0.0
2017-Oct-17 22:00N 34°39' E 135°29'0 0.0
2017-Oct-17 21:30N 34°39' E 135°29'0 0.0
2017-Oct-17 21:00N 34°39' E 135°29'0 0.0
2017-Oct-17 20:30N 34°39' E 135°29'0 0.0
2017-Oct-17 20:00N 34°39' E 135°29'0 0.0
2017-Oct-17 19:30N 34°39' E 135°29'0 0.0
2017-Oct-17 19:01N 34°39' E 135°29'0 0.0
2017-Oct-17 18:29N 34°39' E 135°29'0 0.0
2017-Oct-17 18:01N 34°39' E 135°29'0 0.0
2017-Oct-17 17:30N 34°39' E 135°29'0 0.0
2017-Oct-17 16:58N 34°39' E 135°29'0 0.0
2017-Oct-17 16:30N 34°39' E 135°29'0 0.0
2017-Oct-17 16:00N 34°39' E 135°29'0 0.0
2017-Oct-17 15:30N 34°39' E 135°29'0 0.0
2017-Oct-17 14:59N 34°39' E 135°29'0 0.0
2017-Oct-17 14:29N 34°39' E 135°29'0 0.0
2017-Oct-17 14:00N 34°39' E 135°29'0 0.0
2017-Oct-17 13:28N 34°39' E 135°29'0 0.0
2017-Oct-17 13:01N 34°39' E 135°29'0 0.0
2017-Oct-17 12:30N 34°39' E 135°29'0 0.0
2017-Oct-17 12:00N 34°39' E 135°29'0 0.0
2017-Oct-17 11:30N 34°39' E 135°29'0 0.0
2017-Oct-17 11:00N 34°39' E 135°29'0 0.0
2017-Oct-17 10:30N 34°39' E 135°29'0 0.0
2017-Oct-17 09:59N 34°39' E 135°29'0 0.0
2017-Oct-17 09:30N 34°39' E 135°29'0 0.0
2017-Oct-17 09:00N 34°39' E 135°29'0 0.0
2017-Oct-17 08:27N 34°39' E 135°29'0 0.0
2017-Oct-17 08:00N 34°39' E 135°29'0 0.0
2017-Oct-17 07:30N 34°39' E 135°29'0 0.0
2017-Oct-17 06:58N 34°39' E 135°29'0 0.0
2017-Oct-17 05:58N 34°39' E 135°29'0 0.0
2017-Oct-17 05:30N 34°39' E 135°29'0 0.0
2017-Oct-17 05:00N 34°39' E 135°29'0 0.0
2017-Oct-17 04:30N 34°39' E 135°29'0 0.0
2017-Oct-17 00:21N 34°39' E 135°29'0 0.0
2017-Oct-16 23:55N 34°39' E 135°29'2 5.0
2017-Oct-16 23:31N 34°38' E 135°27'1 2.9
2017-Oct-16 23:00N 34°39' E 135°26'1 2.3
2017-Oct-16 22:30N 34°39' E 135°24'0 0.6
2017-Oct-16 22:00N 34°39' E 135°24'2 3.5
2017-Oct-16 21:30N 34°40' E 135°26'0 0.0
2017-Oct-16 21:00N 34°40' E 135°26'0 0.0
2017-Oct-16 20:30N 34°40' E 135°26'0 0.0
2017-Oct-16 20:01N 34°40' E 135°26'0 0.0
2017-Oct-16 19:30N 34°40' E 135°26'0 0.0
2017-Oct-16 18:54N 34°40' E 135°26'0 0.0
2017-Oct-16 18:30N 34°40' E 135°26'0 0.0
2017-Oct-16 17:56N 34°40' E 135°26'0 0.0
2017-Oct-16 17:29N 34°40' E 135°26'0 0.0
2017-Oct-16 16:55N 34°40' E 135°26'0 0.0
2017-Oct-16 16:30N 34°40' E 135°26'0 0.0
2017-Oct-16 15:50N 34°40' E 135°26'0 0.0
2017-Oct-16 15:29N 34°40' E 135°26'0 0.0
2017-Oct-16 15:01N 34°40' E 135°26'2 3.7
2017-Oct-16 14:30N 34°39' E 135°24'2 1.9
2017-Oct-16 13:30N 34°40' E 135°26'0 0.0
2017-Oct-16 12:59N 34°40' E 135°26'0 0.0
2017-Oct-16 12:29N 34°40' E 135°26'0 0.0
2017-Oct-16 12:00N 34°40' E 135°26'0 0.0
2017-Oct-16 11:30N 34°40' E 135°26'0 0.0
2017-Oct-16 11:00N 34°40' E 135°26'0 0.0
2017-Oct-16 10:31N 34°40' E 135°26'0 0.0
2017-Oct-16 10:00N 34°40' E 135°26'0 0.0
2017-Oct-16 09:31N 34°40' E 135°26'0 0.0
2017-Oct-16 09:00N 34°40' E 135°26'0 0.0
2017-Oct-16 08:30N 34°40' E 135°26'0 0.6
2017-Oct-16 08:00N 34°40' E 135°26'1 2.6
2017-Oct-16 07:31N 34°38' E 135°26'1 2.3
2017-Oct-16 07:00N 34°39' E 135°26'0 0.0
2017-Oct-16 06:30N 34°39' E 135°26'0 0.4
2017-Oct-16 06:01N 34°40' E 135°26'0 0.5
2017-Oct-16 05:27N 34°40' E 135°26'0 0.0
2017-Oct-16 04:59N 34°40' E 135°26'0 0.0
2017-Oct-16 04:30N 34°40' E 135°26'0 0.0
2017-Oct-16 03:58N 34°40' E 135°26'0 0.0
2017-Oct-16 03:29N 34°40' E 135°26'0 0.0
2017-Oct-16 02:58N 34°40' E 135°26'0 0.0
2017-Oct-16 02:27N 34°40' E 135°26'0 0.0
2017-Oct-16 01:59N 34°40' E 135°26'0 0.0
2017-Oct-16 01:29N 34°40' E 135°26'0 0.0
2017-Oct-16 00:57N 34°40' E 135°26'0 0.0
2017-Oct-16 00:30N 34°40' E 135°26'0 0.0
2017-Oct-16 00:00N 34°40' E 135°26'0 0.0
2017-Oct-15 23:30N 34°40' E 135°26'2 4.2
2017-Oct-15 23:00N 34°38' E 135°24'1 2.2
2017-Oct-15 22:30N 34°38' E 135°25'2 3.2
2017-Oct-15 22:00N 34°38' E 135°23'0 0.4
2017-Oct-15 21:31N 34°38' E 135°23'4 7.1
2017-Oct-15 21:00N 34°40' E 135°26'0 0.0
2017-Oct-15 20:31N 34°40' E 135°26'0 0.0
2017-Oct-15 20:00N 34°40' E 135°26'0 0.0
2017-Oct-15 19:28N 34°40' E 135°26'0 0.0
2017-Oct-15 18:58N 34°40' E 135°26'0 0.0
2017-Oct-15 18:30N 34°40' E 135°26'0 0.0
2017-Oct-15 18:00N 34°40' E 135°26'0 0.0
2017-Oct-15 17:30N 34°40' E 135°26'0 0.0
2017-Oct-15 17:00N 34°40' E 135°26'0 0.0
2017-Oct-15 16:31N 34°40' E 135°26'0 0.0
2017-Oct-15 16:00N 34°40' E 135°26'0 0.0
2017-Oct-15 15:30N 34°40' E 135°26'0 0.0
2017-Oct-15 15:00N 34°40' E 135°26'0 0.0
2017-Oct-15 14:00N 34°40' E 135°26'0 0.0
2017-Oct-15 13:30N 34°40' E 135°26'0 0.0
2017-Oct-15 13:00N 34°40' E 135°26'0 0.0
2017-Oct-15 12:28N 34°40' E 135°26'0 0.0
2017-Oct-15 12:00N 34°40' E 135°26'0 0.0
2017-Oct-15 11:20N 34°40' E 135°26'0 0.0
2017-Oct-15 11:00N 34°40' E 135°26'0 0.0
2017-Oct-15 10:27N 34°40' E 135°26'0 0.0
2017-Oct-15 10:00N 34°40' E 135°26'0 0.0
2017-Oct-15 09:30N 34°40' E 135°26'0 0.0
2017-Oct-15 08:59N 34°40' E 135°26'0 0.0
2017-Oct-15 08:29N 34°40' E 135°26'0 0.0
2017-Oct-15 08:00N 34°40' E 135°26'0 0.0
2017-Oct-15 07:30N 34°40' E 135°26'0 0.0
2017-Oct-15 06:41N 34°40' E 135°26'0 0.0
2017-Oct-15 06:29N 34°40' E 135°26'0 0.0
2017-Oct-15 06:00N 34°40' E 135°26'0 0.0
2017-Oct-15 05:30N 34°40' E 135°26'0 0.0
2017-Oct-15 04:59N 34°40' E 135°26'0 0.0
2017-Oct-15 04:27N 34°40' E 135°26'0 0.0
2017-Oct-15 03:57N 34°40' E 135°26'0 0.2
2017-Oct-15 03:31N 34°40' E 135°26'4 7.0
2017-Oct-15 03:00N 34°37' E 135°24'4 8.0
2017-Oct-15 02:30N 34°33' E 135°26'0 0.7
2017-Oct-15 01:57N 34°33' E 135°25'1 1.5
2017-Oct-15 01:29N 34°33' E 135°24'0 0.2
2017-Oct-15 00:05N 34°34' E 135°24'0 0.6
2017-Oct-14 23:58N 34°34' E 135°24'2 2.9
2017-Oct-14 23:24N 34°33' E 135°22'2 4.8
2017-Oct-14 23:00N 34°33' E 135°20'1 2.8
2017-Oct-14 22:30N 34°34' E 135°19'4 7.4
2017-Oct-14 22:00N 34°37' E 135°22'4 7.9
2017-Oct-14 21:28N 34°40' E 135°26'0 0.0
2017-Oct-14 21:01N 34°40' E 135°26'0 0.0
2017-Oct-14 20:30N 34°40' E 135°26'0 0.0
2017-Oct-14 20:00N 34°40' E 135°26'0 0.0
2017-Oct-14 19:30N 34°40' E 135°26'0 0.0
2017-Oct-14 19:00N 34°40' E 135°26'0 0.0
2017-Oct-14 18:30N 34°40' E 135°26'0 0.0
2017-Oct-14 18:01N 34°40' E 135°26'0 0.0
2017-Oct-14 17:30N 34°40' E 135°26'0 0.0
2017-Oct-14 17:00N 34°40' E 135°26'0 0.0
2017-Oct-14 16:30N 34°40' E 135°26'0 0.0
2017-Oct-14 15:57N 34°40' E 135°26'0 0.0
2017-Oct-14 15:30N 34°40' E 135°26'0 0.0
2017-Oct-14 14:54N 34°40' E 135°26'0 0.0
2017-Oct-14 14:30N 34°40' E 135°26'0 0.0
2017-Oct-14 14:00N 34°40' E 135°26'0 0.0
2017-Oct-14 13:30N 34°40' E 135°26'0 0.0
2017-Oct-14 12:59N 34°40' E 135°26'0 0.0
2017-Oct-14 12:29N 34°40' E 135°26'0 0.0
2017-Oct-14 12:01N 34°40' E 135°26'0 0.0
2017-Oct-14 11:29N 34°40' E 135°26'0 0.0
2017-Oct-14 11:00N 34°40' E 135°26'0 0.0
2017-Oct-14 10:22N 34°40' E 135°26'0 0.0
2017-Oct-14 09:50N 34°40' E 135°26'0 0.0
2017-Oct-14 09:28N 34°40' E 135°26'0 0.0
2017-Oct-14 09:01N 34°40' E 135°26'0 0.0
2017-Oct-14 08:22N 34°40' E 135°26'0 0.0
2017-Oct-14 08:01N 34°40' E 135°26'0 0.0
2017-Oct-14 07:28N 34°40' E 135°26'0 0.0
2017-Oct-14 06:58N 34°40' E 135°26'1 2.1
2017-Oct-14 06:30N 34°39' E 135°25'2 3.3
2017-Oct-14 06:00N 34°38' E 135°24'0 0.1
2017-Oct-14 05:30N 34°38' E 135°25'0 0.1
2017-Oct-14 05:00N 34°38' E 135°25'0 0.0
2017-Oct-14 04:30N 34°38' E 135°25'0 0.0
2017-Oct-14 04:00N 34°38' E 135°25'0 0.0
2017-Oct-14 03:31N 34°38' E 135°25'2 3.5
2017-Oct-14 03:00N 34°39' E 135°26'1 2.4
2017-Oct-14 02:30N 34°40' E 135°27'0 0.1
2017-Oct-14 01:59N 34°40' E 135°27'0 0.0
2017-Oct-14 01:30N 34°40' E 135°27'0 0.9
2017-Oct-14 01:00N 34°40' E 135°26'1 2.0
2017-Oct-14 00:30N 34°39' E 135°25'0 0.1
2017-Oct-14 00:00N 34°39' E 135°25'1 1.8
2017-Oct-13 23:30N 34°40' E 135°26'0 0.0
2017-Oct-13 22:59N 34°40' E 135°26'0 0.0
2017-Oct-13 22:30N 34°40' E 135°26'0 0.0
2017-Oct-13 22:00N 34°40' E 135°26'0 0.0
2017-Oct-13 21:30N 34°40' E 135°26'0 0.0
2017-Oct-13 21:00N 34°40' E 135°26'0 0.0
2017-Oct-13 20:30N 34°40' E 135°26'0 0.0
2017-Oct-13 20:00N 34°40' E 135°26'0 0.0
2017-Oct-13 19:31N 34°40' E 135°26'0 0.0
2017-Oct-13 18:59N 34°40' E 135°26'0 0.0
2017-Oct-13 18:24N 34°40' E 135°26'0 0.0
2017-Oct-13 18:00N 34°40' E 135°26'0 0.0
2017-Oct-13 17:31N 34°40' E 135°26'0 0.0
2017-Oct-13 16:59N 34°40' E 135°26'0 0.0
2017-Oct-13 16:30N 34°40' E 135°26'0 0.0
2017-Oct-13 16:00N 34°40' E 135°26'0 0.0
2017-Oct-13 15:30N 34°40' E 135°26'0 0.0
2017-Oct-13 14:58N 34°40' E 135°26'0 0.0
2017-Oct-13 14:27N 34°40' E 135°26'0 0.0
2017-Oct-13 14:00N 34°40' E 135°26'0 0.0
2017-Oct-13 13:30N 34°40' E 135°26'0 0.0
2017-Oct-13 13:00N 34°40' E 135°26'0 0.0
2017-Oct-13 12:30N 34°40' E 135°26'0 0.0
2017-Oct-13 12:00N 34°40' E 135°26'0 0.0
2017-Oct-13 11:30N 34°40' E 135°26'0 0.0
2017-Oct-13 11:00N 34°40' E 135°26'0 0.0
2017-Oct-13 10:30N 34°40' E 135°26'0 0.0
2017-Oct-13 09:58N 34°40' E 135°26'0 0.0
2017-Oct-13 09:30N 34°40' E 135°26'0 0.0
2017-Oct-13 09:00N 34°40' E 135°26'0 0.0
2017-Oct-13 08:30N 34°40' E 135°26'0 0.0
2017-Oct-13 07:53N 34°40' E 135°26'0 0.0
2017-Oct-13 07:30N 34°40' E 135°26'0 0.0
2017-Oct-13 06:59N 34°40' E 135°26'0 0.0
2017-Oct-13 06:30N 34°40' E 135°26'0 0.0
2017-Oct-13 06:00N 34°40' E 135°26'0 0.0
2017-Oct-13 05:30N 34°40' E 135°26'0 0.0
2017-Oct-13 04:59N 34°40' E 135°26'0 0.0
2017-Oct-13 04:30N 34°40' E 135°26'0 0.0
2017-Oct-13 04:00N 34°40' E 135°26'0 0.0
2017-Oct-13 03:30N 34°40' E 135°26'0 0.0
2017-Oct-13 03:00N 34°40' E 135°26'0 0.0
2017-Oct-13 02:27N 34°40' E 135°26'0 0.0
2017-Oct-13 01:59N 34°40' E 135°26'0 0.0
2017-Oct-13 01:30N 34°40' E 135°26'0 0.0
2017-Oct-13 01:01N 34°40' E 135°26'0 0.0
2017-Oct-13 00:30N 34°40' E 135°26'0 0.0
2017-Oct-13 00:00N 34°40' E 135°26'0 0.0
2017-Oct-12 23:30N 34°40' E 135°26'0 0.0
2017-Oct-12 22:58N 34°40' E 135°26'0 0.0
2017-Oct-12 22:30N 34°40' E 135°26'0 0.0
2017-Oct-12 21:55N 34°40' E 135°26'0 0.0
2017-Oct-12 21:31N 34°40' E 135°26'0 0.0
2017-Oct-12 21:00N 34°40' E 135°26'0 0.0
2017-Oct-12 20:30N 34°40' E 135°26'0 0.0
2017-Oct-12 20:01N 34°40' E 135°26'0 0.0
2017-Oct-12 19:30N 34°40' E 135°26'0 0.0
2017-Oct-12 19:01N 34°40' E 135°26'0 0.0
2017-Oct-12 18:30N 34°40' E 135°26'0 0.0
2017-Oct-12 18:00N 34°40' E 135°26'0 0.0
2017-Oct-12 17:30N 34°40' E 135°26'0 0.0
2017-Oct-12 17:00N 34°40' E 135°26'0 0.0
2017-Oct-12 16:31N 34°40' E 135°26'0 0.0
2017-Oct-12 16:01N 34°40' E 135°26'0 0.0
2017-Oct-12 15:30N 34°40' E 135°26'0 0.0
2017-Oct-12 15:00N 34°40' E 135°26'0 0.0
2017-Oct-12 14:30N 34°40' E 135°26'0 0.0
2017-Oct-12 14:00N 34°40' E 135°26'0 0.0
2017-Oct-12 13:25N 34°40' E 135°26'0 0.0
2017-Oct-12 12:59N 34°40' E 135°26'0 0.0
2017-Oct-12 12:30N 34°40' E 135°26'0 0.0
2017-Oct-12 12:00N 34°40' E 135°26'0 0.0
2017-Oct-12 11:31N 34°40' E 135°26'0 0.0
2017-Oct-12 11:01N 34°40' E 135°26'0 0.0
2017-Oct-12 10:30N 34°40' E 135°26'0 0.0
2017-Oct-12 09:59N 34°40' E 135°26'0 0.0
2017-Oct-12 09:29N 34°40' E 135°26'0 0.0
2017-Oct-12 09:00N 34°40' E 135°26'0 0.0
2017-Oct-12 08:30N 34°40' E 135°26'0 0.0
2017-Oct-12 07:57N 34°40' E 135°26'0 0.0
2017-Oct-12 07:29N 34°40' E 135°26'0 0.0
2017-Oct-12 07:00N 34°40' E 135°26'0 0.0
2017-Oct-12 06:30N 34°40' E 135°26'0 0.0
2017-Oct-12 05:59N 34°40' E 135°26'0 0.0
2017-Oct-12 05:30N 34°40' E 135°26'0 0.0
2017-Oct-12 04:58N 34°40' E 135°26'0 0.0
2017-Oct-12 04:30N 34°40' E 135°26'0 0.0
2017-Oct-12 04:00N 34°40' E 135°26'0 0.0
2017-Oct-12 03:23N 34°40' E 135°26'0 0.0
2017-Oct-12 02:58N 34°40' E 135°26'0 0.0
2017-Oct-12 02:30N 34°40' E 135°26'0 0.0
2017-Oct-12 02:00N 34°40' E 135°26'0 0.0
2017-Oct-12 01:30N 34°40' E 135°26'0 0.0
2017-Oct-12 01:01N 34°40' E 135°26'0 0.0
2017-Oct-12 00:30N 34°40' E 135°26'0 0.0
2017-Oct-12 00:00N 34°40' E 135°26'0 0.0
2017-Oct-11 23:30N 34°40' E 135°26'0 0.0
2017-Oct-11 23:00N 34°40' E 135°26'0 0.0
2017-Oct-11 22:30N 34°40' E 135°26'0 0.0
2017-Oct-11 22:01N 34°40' E 135°26'0 0.0
2017-Oct-11 21:31N 34°40' E 135°26'0 0.0
2017-Oct-11 21:00N 34°40' E 135°26'0 0.0
2017-Oct-11 20:31N 34°40' E 135°26'0 0.0
2017-Oct-11 20:00N 34°40' E 135°26'0 0.0
2017-Oct-11 19:30N 34°40' E 135°26'0 0.0
2017-Oct-11 19:01N 34°40' E 135°26'0 0.0
2017-Oct-11 18:30N 34°40' E 135°26'0 0.0
2017-Oct-11 17:59N 34°40' E 135°26'0 0.0
2017-Oct-11 17:30N 34°40' E 135°26'0 0.0
2017-Oct-11 17:00N 34°40' E 135°26'0 0.0
2017-Oct-11 00:00N 34°40' E 135°26'0 0.0
2017-Oct-10 23:30N 34°40' E 135°26'0 0.0
2017-Oct-10 23:01N 34°40' E 135°26'  
Track history (hours):
 
Tides and Currents Weather Stations Pressure Air Temp Water Temp Dewpoint Dewpoint Depression Visibility Wind Speed Wind Dir Waves Ship Positions

Meiyo Maru

Last reported at 2017-Oct-20 22:47 UTC. Time now 2017-Oct-22 19:06 UTC.
Position N 34°41' E 134°46'.

Length 40 m; draft 4 m.

Type: Tug. MMSI: 432579000.

Date/timePositionNaut miles runAvg speedWind from/ knotsBaromVisibWave heightAir tempDewpointWater temp
2017-Oct-20 22:47N 34°41' E 134°46'2 6.8
2017-Oct-20 22:28N 34°40' E 134°48'4 7.7
2017-Oct-20 22:00N 34°38' E 134°51'5 8.1
2017-Oct-20 21:27N 34°38' E 134°57'4 7.4
2017-Oct-20 20:58N 34°37' E 135°01'3 5.6
2017-Oct-20 20:31N 34°36' E 135°04'3 5.3
2017-Oct-20 20:00N 34°36' E 135°07'3 5.1
2017-Oct-20 19:30N 34°36' E 135°10'2 3.9
2017-Oct-20 19:00N 34°36' E 135°13'2 4.6
2017-Oct-20 18:30N 34°36' E 135°15'2 4.7
2017-Oct-20 18:01N 34°39' E 135°16'3 5.3
2017-Oct-20 17:30N 34°41' E 135°14'0 0.6
2017-Oct-20 17:00N 34°41' E 135°14'2 4.5
2017-Oct-20 16:30N 34°41' E 135°17'510.5
2017-Oct-20 16:00N 34°40' E 135°23'2 4.4
2017-Oct-20 15:27N 34°39' E 135°26'0 0.0
2017-Oct-20 15:00N 34°39' E 135°26'0 0.0
2017-Oct-20 14:28N 34°39' E 135°26'0 0.0
2017-Oct-20 13:28N 34°39' E 135°26'0 0.0
2017-Oct-20 12:55N 34°39' E 135°26'0 0.0
2017-Oct-20 11:25N 34°39' E 135°26'0 0.0
2017-Oct-20 08:56N 34°39' E 135°26'0 0.0
2017-Oct-20 06:59N 34°39' E 135°26'0 0.0
2017-Oct-20 06:30N 34°39' E 135°26'0 0.0
2017-Oct-20 05:55N 34°39' E 135°26'0 0.0
2017-Oct-20 05:26N 34°39' E 135°26'0 0.0
2017-Oct-20 05:00N 34°39' E 135°26'0 0.0
2017-Oct-20 04:29N 34°39' E 135°26'0 0.0
2017-Oct-20 03:58N 34°39' E 135°26'0 0.0
2017-Oct-20 03:30N 34°39' E 135°26'0 0.0
2017-Oct-20 03:00N 34°39' E 135°26'0 0.0
2017-Oct-20 02:29N 34°39' E 135°26'0 0.0
2017-Oct-20 01:58N 34°39' E 135°26'0 0.0
2017-Oct-20 01:26N 34°39' E 135°26'0 0.0
2017-Oct-20 00:05N 34°39' E 135°26'0 0.0
2017-Oct-19 23:58N 34°39' E 135°26'0 0.0
2017-Oct-19 23:28N 34°39' E 135°26'0 0.0
2017-Oct-19 23:00N 34°39' E 135°26'0 0.7
2017-Oct-19 22:30N 34°39' E 135°26'1 2.5
2017-Oct-19 22:00N 34°39' E 135°24'0 0.6
2017-Oct-19 21:30N 34°39' E 135°25'2 3.0
2017-Oct-19 21:00N 34°40' E 135°26'0 0.0
2017-Oct-19 20:30N 34°40' E 135°26'0 0.0
2017-Oct-19 20:00N 34°40' E 135°26'0 0.0
2017-Oct-19 19:30N 34°40' E 135°26'0 0.0
2017-Oct-19 19:01N 34°40' E 135°26'0 0.0
2017-Oct-19 18:30N 34°40' E 135°26'0 0.0
2017-Oct-19 18:00N 34°40' E 135°26'0 0.0
2017-Oct-19 17:31N 34°40' E 135°26'0 0.0
2017-Oct-19 17:00N 34°40' E 135°26'0 0.0
2017-Oct-19 16:30N 34°40' E 135°26'0 0.0
2017-Oct-19 16:01N 34°40' E 135°26'0 0.0
2017-Oct-19 15:30N 34°40' E 135°26'0 0.0
2017-Oct-19 15:00N 34°40' E 135°26'0 0.0
2017-Oct-19 14:30N 34°40' E 135°26'0 0.0
2017-Oct-19 14:00N 34°40' E 135°26'0 0.0
2017-Oct-19 13:29N 34°40' E 135°26'0 0.0
2017-Oct-19 13:00N 34°40' E 135°26'0 0.0
2017-Oct-19 12:30N 34°40' E 135°26'0 0.0
2017-Oct-19 11:59N 34°40' E 135°26'0 0.0
2017-Oct-19 11:30N 34°40' E 135°26'0 0.0
2017-Oct-19 11:00N 34°40' E 135°26'0 0.0
2017-Oct-19 10:30N 34°40' E 135°26'0 0.0
2017-Oct-19 09:59N 34°40' E 135°26'0 0.0
2017-Oct-19 09:30N 34°40' E 135°26'0 0.0
2017-Oct-19 09:01N 34°40' E 135°26'0 0.0
2017-Oct-19 08:29N 34°40' E 135°26'0 0.0
2017-Oct-19 07:58N 34°40' E 135°26'0 0.0
2017-Oct-19 07:30N 34°40' E 135°26'0 0.0
2017-Oct-19 06:59N 34°40' E 135°26'0 0.0
2017-Oct-19 06:27N 34°40' E 135°26'0 0.0
2017-Oct-19 06:01N 34°40' E 135°26'0 0.0
2017-Oct-19 05:28N 34°40' E 135°26'0 0.0
2017-Oct-19 05:00N 34°40' E 135°26'0 0.0
2017-Oct-19 04:29N 34°40' E 135°26'0 0.0
2017-Oct-19 04:00N 34°40' E 135°26'0 0.0
2017-Oct-19 03:30N 34°40' E 135°26'0 0.0
2017-Oct-19 03:00N 34°40' E 135°26'0 0.0
2017-Oct-19 02:29N 34°40' E 135°26'0 0.0
2017-Oct-19 01:59N 34°40' E 135°26'0 0.0
2017-Oct-19 01:30N 34°40' E 135°26'0 0.0
2017-Oct-19 01:01N 34°40' E 135°26'0 0.0
2017-Oct-19 00:30N 34°40' E 135°26'0 0.0
2017-Oct-19 00:01N 34°40' E 135°26'0 0.0
2017-Oct-18 23:31N 34°40' E 135°26'0 0.0
2017-Oct-18 23:00N 34°40' E 135°26'0 0.0
2017-Oct-18 22:28N 34°40' E 135°26'0 0.0
2017-Oct-18 22:00N 34°40' E 135°26'0 0.0
2017-Oct-18 21:30N 34°40' E 135°26'0 0.0
2017-Oct-18 20:59N 34°40' E 135°26'0 0.0
2017-Oct-18 20:30N 34°40' E 135°26'0 0.0
2017-Oct-18 20:00N 34°40' E 135°26'0 0.0
2017-Oct-18 19:30N 34°40' E 135°26'0 0.0
2017-Oct-18 19:00N 34°40' E 135°26'0 0.0
2017-Oct-18 18:30N 34°40' E 135°26'0 0.0
2017-Oct-18 18:00N 34°40' E 135°26'0 0.0
2017-Oct-18 17:30N 34°40' E 135°26'0 0.0
2017-Oct-18 17:00N 34°40' E 135°26'0 0.0
2017-Oct-18 16:19N 34°40' E 135°26'0 0.0
2017-Oct-18 16:00N 34°40' E 135°26'0 0.0
2017-Oct-18 15:31N 34°40' E 135°26'0 0.0
2017-Oct-18 15:00N 34°40' E 135°26'0 0.0
2017-Oct-18 14:01N 34°40' E 135°26'0 0.0
2017-Oct-18 13:30N 34°40' E 135°26'0 0.0
2017-Oct-18 13:01N 34°40' E 135°26'0 0.0
2017-Oct-18 12:30N 34°40' E 135°26'0 0.0
2017-Oct-18 11:59N 34°40' E 135°26'0 0.0
2017-Oct-18 11:30N 34°40' E 135°26'0 0.0
2017-Oct-18 11:00N 34°40' E 135°26'0 0.0
2017-Oct-18 10:29N 34°40' E 135°26'0 0.0
2017-Oct-18 10:00N 34°40' E 135°26'0 0.0
2017-Oct-18 09:30N 34°40' E 135°26'0 0.0
2017-Oct-18 08:58N 34°40' E 135°26'0 0.0
2017-Oct-18 08:31N 34°40' E 135°26'0 0.0
2017-Oct-18 07:59N 34°40' E 135°26'0 0.0
2017-Oct-18 07:25N 34°40' E 135°26'0 0.0
2017-Oct-18 07:01N 34°40' E 135°26'0 0.0
2017-Oct-18 06:29N 34°40' E 135°26'0 0.0
2017-Oct-18 05:59N 34°40' E 135°26'0 0.0
2017-Oct-18 05:30N 34°40' E 135°26'0 0.0
2017-Oct-18 05:00N 34°40' E 135°26'0 0.0
2017-Oct-18 04:30N 34°40' E 135°26'0 0.0
2017-Oct-18 03:56N 34°40' E 135°26'0 0.0
2017-Oct-18 03:30N 34°40' E 135°26'0 0.0
2017-Oct-18 02:55N 34°40' E 135°26'0 0.0
2017-Oct-18 02:30N 34°40' E 135°26'0 0.0
2017-Oct-18 01:59N 34°40' E 135°26'0 0.0
2017-Oct-18 01:30N 34°40' E 135°26'2 3.7
2017-Oct-18 00:55N 34°39' E 135°29'0 0.7
2017-Oct-18 00:30N 34°39' E 135°29'0 0.0
2017-Oct-18 00:00N 34°39' E 135°29'0 0.0
2017-Oct-17 23:30N 34°39' E 135°29'0 0.0
2017-Oct-17 23:00N 34°39' E 135°29'0 0.0
2017-Oct-17 22:29N 34°39' E 135°29'0 0.0
2017-Oct-17 22:00N 34°39' E 135°29'0 0.0
2017-Oct-17 21:30N 34°39' E 135°29'0 0.0
2017-Oct-17 21:00N 34°39' E 135°29'0 0.0
2017-Oct-17 20:30N 34°39' E 135°29'0 0.0
2017-Oct-17 20:00N 34°39' E 135°29'0 0.0
2017-Oct-17 19:30N 34°39' E 135°29'0 0.0
2017-Oct-17 19:01N 34°39' E 135°29'0 0.0
2017-Oct-17 18:29N 34°39' E 135°29'0 0.0
2017-Oct-17 18:01N 34°39' E 135°29'0 0.0
2017-Oct-17 17:30N 34°39' E 135°29'0 0.0
2017-Oct-17 16:58N 34°39' E 135°29'0 0.0
2017-Oct-17 16:30N 34°39' E 135°29'0 0.0
2017-Oct-17 16:00N 34°39' E 135°29'0 0.0
2017-Oct-17 15:30N 34°39' E 135°29'0 0.0
2017-Oct-17 14:59N 34°39' E 135°29'0 0.0
2017-Oct-17 14:29N 34°39' E 135°29'0 0.0
2017-Oct-17 14:00N 34°39' E 135°29'0 0.0
2017-Oct-17 13:28N 34°39' E 135°29'0 0.0
2017-Oct-17 13:01N 34°39' E 135°29'0 0.0
2017-Oct-17 12:30N 34°39' E 135°29'0 0.0
2017-Oct-17 12:00N 34°39' E 135°29'0 0.0
2017-Oct-17 11:30N 34°39' E 135°29'0 0.0
2017-Oct-17 11:00N 34°39' E 135°29'0 0.0
2017-Oct-17 10:30N 34°39' E 135°29'0 0.0
2017-Oct-17 09:59N 34°39' E 135°29'0 0.0
2017-Oct-17 09:30N 34°39' E 135°29'0 0.0
2017-Oct-17 09:00N 34°39' E 135°29'0 0.0
2017-Oct-17 08:27N 34°39' E 135°29'0 0.0
2017-Oct-17 08:00N 34°39' E 135°29'0 0.0
2017-Oct-17 07:30N 34°39' E 135°29'0 0.0
2017-Oct-17 06:58N 34°39' E 135°29'0 0.0
2017-Oct-17 05:58N 34°39' E 135°29'0 0.0
2017-Oct-17 05:30N 34°39' E 135°29'0 0.0
2017-Oct-17 05:00N 34°39' E 135°29'0 0.0
2017-Oct-17 04:30N 34°39' E 135°29'0 0.0
2017-Oct-17 00:21N 34°39' E 135°29'0 0.0
2017-Oct-16 23:55N 34°39' E 135°29'2 5.0
2017-Oct-16 23:31N 34°38' E 135°27'1 2.9
2017-Oct-16 23:00N 34°39' E 135°26'1 2.3
2017-Oct-16 22:30N 34°39' E 135°24'0 0.6
2017-Oct-16 22:00N 34°39' E 135°24'2 3.5
2017-Oct-16 21:30N 34°40' E 135°26'0 0.0
2017-Oct-16 21:00N 34°40' E 135°26'0 0.0
2017-Oct-16 20:30N 34°40' E 135°26'0 0.0
2017-Oct-16 20:01N 34°40' E 135°26'0 0.0
2017-Oct-16 19:30N 34°40' E 135°26'0 0.0
2017-Oct-16 18:54N 34°40' E 135°26'0 0.0
2017-Oct-16 18:30N 34°40' E 135°26'0 0.0
2017-Oct-16 17:56N 34°40' E 135°26'0 0.0
2017-Oct-16 17:29N 34°40' E 135°26'0 0.0
2017-Oct-16 16:55N 34°40' E 135°26'0 0.0
2017-Oct-16 16:30N 34°40' E 135°26'0 0.0
2017-Oct-16 15:50N 34°40' E 135°26'0 0.0
2017-Oct-16 15:29N 34°40' E 135°26'0 0.0
2017-Oct-16 15:01N 34°40' E 135°26'2 3.7
2017-Oct-16 14:30N 34°39' E 135°24'2 1.9
2017-Oct-16 13:30N 34°40' E 135°26'0 0.0
2017-Oct-16 12:59N 34°40' E 135°26'0 0.0
2017-Oct-16 12:29N 34°40' E 135°26'0 0.0
2017-Oct-16 12:00N 34°40' E 135°26'0 0.0
2017-Oct-16 11:30N 34°40' E 135°26'0 0.0
2017-Oct-16 11:00N 34°40' E 135°26'0 0.0
2017-Oct-16 10:31N 34°40' E 135°26'0 0.0
2017-Oct-16 10:00N 34°40' E 135°26'0 0.0
2017-Oct-16 09:31N 34°40' E 135°26'0 0.0
2017-Oct-16 09:00N 34°40' E 135°26'0 0.0
2017-Oct-16 08:30N 34°40' E 135°26'0 0.6
2017-Oct-16 08:00N 34°40' E 135°26'1 2.6
2017-Oct-16 07:31N 34°38' E 135°26'1 2.3
2017-Oct-16 07:00N 34°39' E 135°26'0 0.0
2017-Oct-16 06:30N 34°39' E 135°26'0 0.4
2017-Oct-16 06:01N 34°40' E 135°26'0 0.5
2017-Oct-16 05:27N 34°40' E 135°26'0 0.0
2017-Oct-16 04:59N 34°40' E 135°26'0 0.0
2017-Oct-16 04:30N 34°40' E 135°26'0 0.0
2017-Oct-16 03:58N 34°40' E 135°26'0 0.0
2017-Oct-16 03:29N 34°40' E 135°26'0 0.0
2017-Oct-16 02:58N 34°40' E 135°26'0 0.0
2017-Oct-16 02:27N 34°40' E 135°26'0 0.0
2017-Oct-16 01:59N 34°40' E 135°26'0 0.0
2017-Oct-16 01:29N 34°40' E 135°26'0 0.0
2017-Oct-16 00:57N 34°40' E 135°26'0 0.0
2017-Oct-16 00:30N 34°40' E 135°26'0 0.0
2017-Oct-16 00:00N 34°40' E 135°26'0 0.0
2017-Oct-15 23:30N 34°40' E 135°26'2 4.2
2017-Oct-15 23:00N 34°38' E 135°24'1 2.2
2017-Oct-15 22:30N 34°38' E 135°25'2 3.2
2017-Oct-15 22:00N 34°38' E 135°23'0 0.4
2017-Oct-15 21:31N 34°38' E 135°23'4 7.1
2017-Oct-15 21:00N 34°40' E 135°26'0 0.0
2017-Oct-15 20:31N 34°40' E 135°26'0 0.0
2017-Oct-15 20:00N 34°40' E 135°26'0 0.0
2017-Oct-15 19:28N 34°40' E 135°26'0 0.0
2017-Oct-15 18:58N 34°40' E 135°26'0 0.0
2017-Oct-15 18:30N 34°40' E 135°26'0 0.0
2017-Oct-15 18:00N 34°40' E 135°26'0 0.0
2017-Oct-15 17:30N 34°40' E 135°26'0 0.0
2017-Oct-15 17:00N 34°40' E 135°26'0 0.0
2017-Oct-15 16:31N 34°40' E 135°26'0 0.0
2017-Oct-15 16:00N 34°40' E 135°26'0 0.0
2017-Oct-15 15:30N 34°40' E 135°26'0 0.0
2017-Oct-15 15:00N 34°40' E 135°26'0 0.0
2017-Oct-15 14:00N 34°40' E 135°26'0 0.0
2017-Oct-15 13:30N 34°40' E 135°26'0 0.0
2017-Oct-15 13:00N 34°40' E 135°26'0 0.0
2017-Oct-15 12:28N 34°40' E 135°26'0 0.0
2017-Oct-15 12:00N 34°40' E 135°26'0 0.0
2017-Oct-15 11:20N 34°40' E 135°26'0 0.0
2017-Oct-15 11:00N 34°40' E 135°26'0 0.0
2017-Oct-15 10:27N 34°40' E 135°26'0 0.0
2017-Oct-15 10:00N 34°40' E 135°26'0 0.0
2017-Oct-15 09:30N 34°40' E 135°26'0 0.0
2017-Oct-15 08:59N 34°40' E 135°26'0 0.0
2017-Oct-15 08:29N 34°40' E 135°26'0 0.0
2017-Oct-15 08:00N 34°40' E 135°26'0 0.0
2017-Oct-15 07:30N 34°40' E 135°26'0 0.0
2017-Oct-15 06:41N 34°40' E 135°26'0 0.0
2017-Oct-15 06:29N 34°40' E 135°26'0 0.0
2017-Oct-15 06:00N 34°40' E 135°26'0 0.0
2017-Oct-15 05:30N 34°40' E 135°26'0 0.0
2017-Oct-15 04:59N 34°40' E 135°26'0 0.0
2017-Oct-15 04:27N 34°40' E 135°26'0 0.0
2017-Oct-15 03:57N 34°40' E 135°26'0 0.2
2017-Oct-15 03:31N 34°40' E 135°26'4 7.0
2017-Oct-15 03:00N 34°37' E 135°24'4 8.0
2017-Oct-15 02:30N 34°33' E 135°26'0 0.7
2017-Oct-15 01:57N 34°33' E 135°25'1 1.5
2017-Oct-15 01:29N 34°33' E 135°24'0 0.2
2017-Oct-15 00:05N 34°34' E 135°24'0 0.6
2017-Oct-14 23:58N 34°34' E 135°24'2 2.9
2017-Oct-14 23:24N 34°33' E 135°22'2 4.8
2017-Oct-14 23:00N 34°33' E 135°20'1 2.8
2017-Oct-14 22:30N 34°34' E 135°19'4 7.4
2017-Oct-14 22:00N 34°37' E 135°22'4 7.9
2017-Oct-14 21:28N 34°40' E 135°26'0 0.0
2017-Oct-14 21:01N 34°40' E 135°26'0 0.0
2017-Oct-14 20:30N 34°40' E 135°26'0 0.0
2017-Oct-14 20:00N 34°40' E 135°26'0 0.0
2017-Oct-14 19:30N 34°40' E 135°26'0 0.0
2017-Oct-14 19:00N 34°40' E 135°26'0 0.0
2017-Oct-14 18:30N 34°40' E 135°26'0 0.0
2017-Oct-14 18:01N 34°40' E 135°26'0 0.0
2017-Oct-14 17:30N 34°40' E 135°26'0 0.0
2017-Oct-14 17:00N 34°40' E 135°26'0 0.0
2017-Oct-14 16:30N 34°40' E 135°26'0 0.0
2017-Oct-14 15:57N 34°40' E 135°26'0 0.0
2017-Oct-14 15:30N 34°40' E 135°26'0 0.0
2017-Oct-14 14:54N 34°40' E 135°26'0 0.0
2017-Oct-14 14:30N 34°40' E 135°26'0 0.0
2017-Oct-14 14:00N 34°40' E 135°26'0 0.0
2017-Oct-14 13:30N 34°40' E 135°26'0 0.0
2017-Oct-14 12:59N 34°40' E 135°26'0 0.0
2017-Oct-14 12:29N 34°40' E 135°26'0 0.0
2017-Oct-14 12:01N 34°40' E 135°26'0 0.0
2017-Oct-14 11:29N 34°40' E 135°26'0 0.0
2017-Oct-14 11:00N 34°40' E 135°26'0 0.0
2017-Oct-14 10:22N 34°40' E 135°26'0 0.0
2017-Oct-14 09:50N 34°40' E 135°26'0 0.0
2017-Oct-14 09:28N 34°40' E 135°26'0 0.0
2017-Oct-14 09:01N 34°40' E 135°26'0 0.0
2017-Oct-14 08:22N 34°40' E 135°26'0 0.0
2017-Oct-14 08:01N 34°40' E 135°26'0 0.0
2017-Oct-14 07:28N 34°40' E 135°26'0 0.0
2017-Oct-14 06:58N 34°40' E 135°26'1 2.1
2017-Oct-14 06:30N 34°39' E 135°25'2 3.3
2017-Oct-14 06:00N 34°38' E 135°24'0 0.1
2017-Oct-14 05:30N 34°38' E 135°25'0 0.1
2017-Oct-14 05:00N 34°38' E 135°25'0 0.0
2017-Oct-14 04:30N 34°38' E 135°25'0 0.0
2017-Oct-14 04:00N 34°38' E 135°25'0 0.0
2017-Oct-14 03:31N 34°38' E 135°25'2 3.5
2017-Oct-14 03:00N 34°39' E 135°26'1 2.4
2017-Oct-14 02:30N 34°40' E 135°27'0 0.1
2017-Oct-14 01:59N 34°40' E 135°27'0 0.0
2017-Oct-14 01:30N 34°40' E 135°27'0 0.9
2017-Oct-14 01:00N 34°40' E 135°26'1 2.0
2017-Oct-14 00:30N 34°39' E 135°25'0 0.1
2017-Oct-14 00:00N 34°39' E 135°25'1 1.8
2017-Oct-13 23:30N 34°40' E 135°26'0 0.0
2017-Oct-13 22:59N 34°40' E 135°26'0 0.0
2017-Oct-13 22:30N 34°40' E 135°26'0 0.0
2017-Oct-13 22:00N 34°40' E 135°26'0 0.0
2017-Oct-13 21:30N 34°40' E 135°26'0 0.0
2017-Oct-13 21:00N 34°40' E 135°26'0 0.0
2017-Oct-13 20:30N 34°40' E 135°26'0 0.0
2017-Oct-13 20:00N 34°40' E 135°26'0 0.0
2017-Oct-13 19:31N 34°40' E 135°26'0 0.0
2017-Oct-13 18:59N 34°40' E 135°26'0 0.0
2017-Oct-13 18:24N 34°40' E 135°26'0 0.0
2017-Oct-13 18:00N 34°40' E 135°26'0 0.0
2017-Oct-13 17:31N 34°40' E 135°26'0 0.0
2017-Oct-13 16:59N 34°40' E 135°26'0 0.0
2017-Oct-13 16:30N 34°40' E 135°26'0 0.0
2017-Oct-13 16:00N 34°40' E 135°26'0 0.0
2017-Oct-13 15:30N 34°40' E 135°26'0 0.0
2017-Oct-13 14:58N 34°40' E 135°26'0 0.0
2017-Oct-13 14:27N 34°40' E 135°26'0 0.0
2017-Oct-13 14:00N 34°40' E 135°26'0 0.0
2017-Oct-13 13:30N 34°40' E 135°26'0 0.0
2017-Oct-13 13:00N 34°40' E 135°26'0 0.0
2017-Oct-13 12:30N 34°40' E 135°26'0 0.0
2017-Oct-13 12:00N 34°40' E 135°26'0 0.0
2017-Oct-13 11:30N 34°40' E 135°26'0 0.0
2017-Oct-13 11:00N 34°40' E 135°26'0 0.0
2017-Oct-13 10:30N 34°40' E 135°26'0 0.0
2017-Oct-13 09:58N 34°40' E 135°26'0 0.0
2017-Oct-13 09:30N 34°40' E 135°26'0 0.0
2017-Oct-13 09:00N 34°40' E 135°26'0 0.0
2017-Oct-13 08:30N 34°40' E 135°26'0 0.0
2017-Oct-13 07:53N 34°40' E 135°26'0 0.0
2017-Oct-13 07:30N 34°40' E 135°26'0 0.0
2017-Oct-13 06:59N 34°40' E 135°26'0 0.0
2017-Oct-13 06:30N 34°40' E 135°26'0 0.0
2017-Oct-13 06:00N 34°40' E 135°26'0 0.0
2017-Oct-13 05:30N 34°40' E 135°26'0 0.0
2017-Oct-13 04:59N 34°40' E 135°26'0 0.0
2017-Oct-13 04:30N 34°40' E 135°26'0 0.0
2017-Oct-13 04:00N 34°40' E 135°26'0 0.0
2017-Oct-13 03:30N 34°40' E 135°26'0 0.0
2017-Oct-13 03:00N 34°40' E 135°26'0 0.0
2017-Oct-13 02:27N 34°40' E 135°26'0 0.0
2017-Oct-13 01:59N 34°40' E 135°26'0 0.0
2017-Oct-13 01:30N 34°40' E 135°26'0 0.0
2017-Oct-13 01:01N 34°40' E 135°26'0 0.0
2017-Oct-13 00:30N 34°40' E 135°26'0 0.0
2017-Oct-13 00:00N 34°40' E 135°26'0 0.0
2017-Oct-12 23:30N 34°40' E 135°26'0 0.0
2017-Oct-12 22:58N 34°40' E 135°26'0 0.0
2017-Oct-12 22:30N 34°40' E 135°26'0 0.0
2017-Oct-12 21:55N 34°40' E 135°26'0 0.0
2017-Oct-12 21:31N 34°40' E 135°26'0 0.0
2017-Oct-12 21:00N 34°40' E 135°26'0 0.0
2017-Oct-12 20:30N 34°40' E 135°26'0 0.0
2017-Oct-12 20:01N 34°40' E 135°26'0 0.0
2017-Oct-12 19:30N 34°40' E 135°26'0 0.0
2017-Oct-12 19:01N 34°40' E 135°26'0 0.0
2017-Oct-12 18:30N 34°40' E 135°26'0 0.0
2017-Oct-12 18:00N 34°40' E 135°26'0 0.0
2017-Oct-12 17:30N 34°40' E 135°26'0 0.0
2017-Oct-12 17:00N 34°40' E 135°26'0 0.0
2017-Oct-12 16:31N 34°40' E 135°26'0 0.0
2017-Oct-12 16:01N 34°40' E 135°26'0 0.0
2017-Oct-12 15:30N 34°40' E 135°26'0 0.0
2017-Oct-12 15:00N 34°40' E 135°26'0 0.0
2017-Oct-12 14:30N 34°40' E 135°26'0 0.0
2017-Oct-12 14:00N 34°40' E 135°26'0 0.0
2017-Oct-12 13:25N 34°40' E 135°26'0 0.0
2017-Oct-12 12:59N 34°40' E 135°26'0 0.0
2017-Oct-12 12:30N 34°40' E 135°26'0 0.0
2017-Oct-12 12:00N 34°40' E 135°26'0 0.0
2017-Oct-12 11:31N 34°40' E 135°26'0 0.0
2017-Oct-12 11:01N 34°40' E 135°26'0 0.0
2017-Oct-12 10:30N 34°40' E 135°26'0 0.0
2017-Oct-12 09:59N 34°40' E 135°26'0 0.0
2017-Oct-12 09:29N 34°40' E 135°26'0 0.0
2017-Oct-12 09:00N 34°40' E 135°26'0 0.0
2017-Oct-12 08:30N 34°40' E 135°26'0 0.0
2017-Oct-12 07:57N 34°40' E 135°26'0 0.0
2017-Oct-12 07:29N 34°40' E 135°26'0 0.0
2017-Oct-12 07:00N 34°40' E 135°26'0 0.0
2017-Oct-12 06:30N 34°40' E 135°26'0 0.0
2017-Oct-12 05:59N 34°40' E 135°26'0 0.0
2017-Oct-12 05:30N 34°40' E 135°26'0 0.0
2017-Oct-12 04:58N 34°40' E 135°26'0 0.0
2017-Oct-12 04:30N 34°40' E 135°26'0 0.0
2017-Oct-12 04:00N 34°40' E 135°26'0 0.0
2017-Oct-12 03:23N 34°40' E 135°26'0 0.0
2017-Oct-12 02:58N 34°40' E 135°26'0 0.0
2017-Oct-12 02:30N 34°40' E 135°26'0 0.0
2017-Oct-12 02:00N 34°40' E 135°26'0 0.0
2017-Oct-12 01:30N 34°40' E 135°26'0 0.0
2017-Oct-12 01:01N 34°40' E 135°26'0 0.0
2017-Oct-12 00:30N 34°40' E 135°26'0 0.0
2017-Oct-12 00:00N 34°40' E 135°26'0 0.0
2017-Oct-11 23:30N 34°40' E 135°26'0 0.0
2017-Oct-11 23:00N 34°40' E 135°26'0 0.0
2017-Oct-11 22:30N 34°40' E 135°26'0 0.0
2017-Oct-11 22:01N 34°40' E 135°26'0 0.0
2017-Oct-11 21:31N 34°40' E 135°26'0 0.0
2017-Oct-11 21:00N 34°40' E 135°26'0 0.0
2017-Oct-11 20:31N 34°40' E 135°26'0 0.0
2017-Oct-11 20:00N 34°40' E 135°26'0 0.0
2017-Oct-11 19:30N 34°40' E 135°26'0 0.0
2017-Oct-11 19:01N 34°40' E 135°26'0 0.0
2017-Oct-11 18:30N 34°40' E 135°26'0 0.0
2017-Oct-11 17:59N 34°40' E 135°26'0 0.0
2017-Oct-11 17:30N 34°40' E 135°26'0 0.0
2017-Oct-11 17:00N 34°40' E 135°26'0 0.0
2017-Oct-11 00:00N 34°40' E 135°26'0 0.0
2017-Oct-10 23:30N 34°40' E 135°26'0 0.0
2017-Oct-10 23:01N 34°40' E 135°26'  

Dump ship's entire track history